<?xml version="1.0" encoding="UTF-8" standalone="no" ?>
<gpx xmlns="http://www.topografix.com/GPX/1/1" xmlns:xsi="http://www.w3.org/2001/XMLSchema-instance" xsi:schemaLocation="http://www.topografix.com/GPX/1/1 http://www.topografix.com/GPX/1/1/gpx.xsd" version="1.1" creator="VisuGPX - https://www.visugpx.com">
  <metadata>
    <name>AVERNES</name>
    <desc><![CDATA[FAIT]]></desc>
  </metadata>
  <trk>
    <name><![CDATA[AVERNES-14235758]]></name>
    <trkseg>
      <trkpt lat="49.03521" lon="1.86575">
        <ele>40</ele>
        <time>2023-01-08T18:27:27Z</time>
      </trkpt>
      <trkpt lat="49.03507" lon="1.86537">
        <ele>39</ele>
        <time>2023-01-08T18:28:05Z</time>
      </trkpt>
      <trkpt lat="49.03523" lon="1.86503">
        <ele>40</ele>
        <time>2023-01-08T18:28:42Z</time>
      </trkpt>
      <trkpt lat="49.03558" lon="1.86495">
        <ele>43</ele>
        <time>2023-01-08T18:29:29Z</time>
      </trkpt>
      <trkpt lat="49.0358" lon="1.86477">
        <ele>46</ele>
        <time>2023-01-08T18:30:02Z</time>
      </trkpt>
      <trkpt lat="49.03624" lon="1.86483">
        <ele>50</ele>
        <time>2023-01-08T18:31:01Z</time>
      </trkpt>
      <trkpt lat="49.03642" lon="1.86472">
        <ele>52</ele>
        <time>2023-01-08T18:31:27Z</time>
      </trkpt>
      <trkpt lat="49.03669" lon="1.86466">
        <ele>56</ele>
        <time>2023-01-08T18:32:04Z</time>
      </trkpt>
      <trkpt lat="49.03703" lon="1.86469">
        <ele>61</ele>
        <time>2023-01-08T18:32:49Z</time>
      </trkpt>
      <trkpt lat="49.03754" lon="1.86463">
        <ele>69</ele>
        <time>2023-01-08T18:33:57Z</time>
      </trkpt>
      <trkpt lat="49.03765" lon="1.8645">
        <ele>71</ele>
        <time>2023-01-08T18:34:16Z</time>
      </trkpt>
      <trkpt lat="49.03792" lon="1.86398">
        <ele>77</ele>
        <time>2023-01-08T18:35:14Z</time>
      </trkpt>
      <trkpt lat="49.03848" lon="1.8632">
        <ele>85</ele>
        <time>2023-01-08T18:36:55Z</time>
      </trkpt>
      <trkpt lat="49.03891" lon="1.86312">
        <ele>87</ele>
        <time>2023-01-08T18:37:53Z</time>
      </trkpt>
      <trkpt lat="49.0393" lon="1.86288">
        <ele>88</ele>
        <time>2023-01-08T18:38:49Z</time>
      </trkpt>
      <trkpt lat="49.03953" lon="1.86279">
        <ele>89</ele>
        <time>2023-01-08T18:39:21Z</time>
      </trkpt>
      <trkpt lat="49.03975" lon="1.86265">
        <ele>90</ele>
        <time>2023-01-08T18:39:52Z</time>
      </trkpt>
      <trkpt lat="49.0401" lon="1.86231">
        <ele>92</ele>
        <time>2023-01-08T18:40:48Z</time>
      </trkpt>
      <trkpt lat="49.04073" lon="1.86141">
        <ele>93</ele>
        <time>2023-01-08T18:42:43Z</time>
      </trkpt>
      <trkpt lat="49.04095" lon="1.86118">
        <ele>94</ele>
        <time>2023-01-08T18:43:19Z</time>
      </trkpt>
      <trkpt lat="49.04134" lon="1.86051">
        <ele>93</ele>
        <time>2023-01-08T18:44:37Z</time>
      </trkpt>
      <trkpt lat="49.04158" lon="1.85939">
        <ele>92</ele>
        <time>2023-01-08T18:46:20Z</time>
      </trkpt>
      <trkpt lat="49.04165" lon="1.8583">
        <ele>95</ele>
        <time>2023-01-08T18:47:56Z</time>
      </trkpt>
      <trkpt lat="49.04179" lon="1.85762">
        <ele>101</ele>
        <time>2023-01-08T18:48:58Z</time>
      </trkpt>
      <trkpt lat="49.04188" lon="1.85746">
        <ele>103</ele>
        <time>2023-01-08T18:49:17Z</time>
      </trkpt>
      <trkpt lat="49.04209" lon="1.85739">
        <ele>104</ele>
        <time>2023-01-08T18:49:45Z</time>
      </trkpt>
      <trkpt lat="49.0423" lon="1.85724">
        <ele>105</ele>
        <time>2023-01-08T18:50:16Z</time>
      </trkpt>
      <trkpt lat="49.04263" lon="1.85711">
        <ele>106</ele>
        <time>2023-01-08T18:51:02Z</time>
      </trkpt>
      <trkpt lat="49.04331" lon="1.85646">
        <ele>108</ele>
        <time>2023-01-08T18:52:49Z</time>
      </trkpt>
      <trkpt lat="49.04353" lon="1.85622">
        <ele>109</ele>
        <time>2023-01-08T18:53:25Z</time>
      </trkpt>
      <trkpt lat="49.04362" lon="1.85604">
        <ele>110</ele>
        <time>2023-01-08T18:53:45Z</time>
      </trkpt>
      <trkpt lat="49.04416" lon="1.85557">
        <ele>113</ele>
        <time>2023-01-08T18:55:08Z</time>
      </trkpt>
      <trkpt lat="49.04436" lon="1.85531">
        <ele>115</ele>
        <time>2023-01-08T18:55:43Z</time>
      </trkpt>
      <trkpt lat="49.04477" lon="1.85511">
        <ele>117</ele>
        <time>2023-01-08T18:56:40Z</time>
      </trkpt>
      <trkpt lat="49.04553" lon="1.85492">
        <ele>119</ele>
        <time>2023-01-08T18:58:23Z</time>
      </trkpt>
      <trkpt lat="49.04584" lon="1.85473">
        <ele>120</ele>
        <time>2023-01-08T18:59:08Z</time>
      </trkpt>
      <trkpt lat="49.04604" lon="1.85467">
        <ele>121</ele>
        <time>2023-01-08T18:59:35Z</time>
      </trkpt>
      <trkpt lat="49.04612" lon="1.85436">
        <ele>121</ele>
        <time>2023-01-08T19:00:04Z</time>
      </trkpt>
      <trkpt lat="49.04606" lon="1.854">
        <ele>121</ele>
        <time>2023-01-08T19:00:36Z</time>
      </trkpt>
      <trkpt lat="49.04583" lon="1.85331">
        <ele>121</ele>
        <time>2023-01-08T19:01:44Z</time>
      </trkpt>
      <trkpt lat="49.04558" lon="1.85294">
        <ele>121</ele>
        <time>2023-01-08T19:02:31Z</time>
      </trkpt>
      <trkpt lat="49.04561" lon="1.85288">
        <ele>122</ele>
        <time>2023-01-08T19:02:37Z</time>
      </trkpt>
      <trkpt lat="49.04594" lon="1.85271">
        <ele>123</ele>
        <time>2023-01-08T19:03:24Z</time>
      </trkpt>
      <trkpt lat="49.04618" lon="1.85263">
        <ele>124</ele>
        <time>2023-01-08T19:03:56Z</time>
      </trkpt>
      <trkpt lat="49.0464" lon="1.85263">
        <ele>124</ele>
        <time>2023-01-08T19:04:26Z</time>
      </trkpt>
      <trkpt lat="49.04673" lon="1.85253">
        <ele>125</ele>
        <time>2023-01-08T19:05:11Z</time>
      </trkpt>
      <trkpt lat="49.04675" lon="1.85249">
        <ele>125</ele>
        <time>2023-01-08T19:05:15Z</time>
      </trkpt>
      <trkpt lat="49.04681" lon="1.8525">
        <ele>126</ele>
        <time>2023-01-08T19:05:23Z</time>
      </trkpt>
      <trkpt lat="49.04689" lon="1.85244">
        <ele>126</ele>
        <time>2023-01-08T19:05:35Z</time>
      </trkpt>
      <trkpt lat="49.04716" lon="1.85244">
        <ele>127</ele>
        <time>2023-01-08T19:06:11Z</time>
      </trkpt>
      <trkpt lat="49.04726" lon="1.85257">
        <ele>128</ele>
        <time>2023-01-08T19:06:29Z</time>
      </trkpt>
      <trkpt lat="49.04732" lon="1.85245">
        <ele>128</ele>
        <time>2023-01-08T19:06:42Z</time>
      </trkpt>
      <trkpt lat="49.0475" lon="1.8524">
        <ele>129</ele>
        <time>2023-01-08T19:07:06Z</time>
      </trkpt>
      <trkpt lat="49.04844" lon="1.85225">
        <ele>126</ele>
        <time>2023-01-08T19:09:12Z</time>
      </trkpt>
      <trkpt lat="49.0492" lon="1.85206">
        <ele>124</ele>
        <time>2023-01-08T19:10:55Z</time>
      </trkpt>
      <trkpt lat="49.04932" lon="1.85194">
        <ele>125</ele>
        <time>2023-01-08T19:11:14Z</time>
      </trkpt>
      <trkpt lat="49.04946" lon="1.85156">
        <ele>126</ele>
        <time>2023-01-08T19:11:52Z</time>
      </trkpt>
      <trkpt lat="49.04959" lon="1.85141">
        <ele>127</ele>
        <time>2023-01-08T19:12:14Z</time>
      </trkpt>
      <trkpt lat="49.05029" lon="1.85108">
        <ele>126</ele>
        <time>2023-01-08T19:13:52Z</time>
      </trkpt>
      <trkpt lat="49.05034" lon="1.84944">
        <ele>131</ele>
        <time>2023-01-08T19:16:16Z</time>
      </trkpt>
      <trkpt lat="49.05041" lon="1.84894">
        <ele>132</ele>
        <time>2023-01-08T19:17:00Z</time>
      </trkpt>
      <trkpt lat="49.05058" lon="1.84836">
        <ele>134</ele>
        <time>2023-01-08T19:17:56Z</time>
      </trkpt>
      <trkpt lat="49.05051" lon="1.84808">
        <ele>137</ele>
        <time>2023-01-08T19:18:22Z</time>
      </trkpt>
      <trkpt lat="49.05054" lon="1.84763">
        <ele>140</ele>
        <time>2023-01-08T19:19:02Z</time>
      </trkpt>
      <trkpt lat="49.05052" lon="1.84714">
        <ele>144</ele>
        <time>2023-01-08T19:19:45Z</time>
      </trkpt>
      <trkpt lat="49.05047" lon="1.84694">
        <ele>146</ele>
        <time>2023-01-08T19:20:03Z</time>
      </trkpt>
      <trkpt lat="49.05052" lon="1.84678">
        <ele>146</ele>
        <time>2023-01-08T19:20:19Z</time>
      </trkpt>
      <trkpt lat="49.05047" lon="1.84631">
        <ele>150</ele>
        <time>2023-01-08T19:21:00Z</time>
      </trkpt>
      <trkpt lat="49.05051" lon="1.84579">
        <ele>153</ele>
        <time>2023-01-08T19:21:46Z</time>
      </trkpt>
      <trkpt lat="49.05078" lon="1.84562">
        <ele>155</ele>
        <time>2023-01-08T19:22:25Z</time>
      </trkpt>
      <trkpt lat="49.05101" lon="1.84564">
        <ele>155</ele>
        <time>2023-01-08T19:22:56Z</time>
      </trkpt>
      <trkpt lat="49.05126" lon="1.84549">
        <ele>157</ele>
        <time>2023-01-08T19:23:32Z</time>
      </trkpt>
      <trkpt lat="49.05146" lon="1.84551">
        <ele>157</ele>
        <time>2023-01-08T19:23:58Z</time>
      </trkpt>
      <trkpt lat="49.0515" lon="1.84547">
        <ele>157</ele>
        <time>2023-01-08T19:24:05Z</time>
      </trkpt>
      <trkpt lat="49.05151" lon="1.84541">
        <ele>158</ele>
        <time>2023-01-08T19:24:10Z</time>
      </trkpt>
      <trkpt lat="49.05141" lon="1.84524">
        <ele>161</ele>
        <time>2023-01-08T19:24:30Z</time>
      </trkpt>
      <trkpt lat="49.05149" lon="1.84519">
        <ele>161</ele>
        <time>2023-01-08T19:24:42Z</time>
      </trkpt>
      <trkpt lat="49.05157" lon="1.84498">
        <ele>164</ele>
        <time>2023-01-08T19:25:03Z</time>
      </trkpt>
      <trkpt lat="49.05156" lon="1.84471">
        <ele>169</ele>
        <time>2023-01-08T19:25:27Z</time>
      </trkpt>
      <trkpt lat="49.05167" lon="1.84414">
        <ele>179</ele>
        <time>2023-01-08T19:26:19Z</time>
      </trkpt>
      <trkpt lat="49.05192" lon="1.84387">
        <ele>180</ele>
        <time>2023-01-08T19:27:00Z</time>
      </trkpt>
      <trkpt lat="49.05213" lon="1.84353">
        <ele>182</ele>
        <time>2023-01-08T19:27:40Z</time>
      </trkpt>
      <trkpt lat="49.05232" lon="1.84331">
        <ele>184</ele>
        <time>2023-01-08T19:28:12Z</time>
      </trkpt>
      <trkpt lat="49.0526" lon="1.84313">
        <ele>184</ele>
        <time>2023-01-08T19:28:53Z</time>
      </trkpt>
      <trkpt lat="49.05276" lon="1.84284">
        <ele>185</ele>
        <time>2023-01-08T19:29:26Z</time>
      </trkpt>
      <trkpt lat="49.05292" lon="1.8427">
        <ele>186</ele>
        <time>2023-01-08T19:29:51Z</time>
      </trkpt>
      <trkpt lat="49.05308" lon="1.84268">
        <ele>186</ele>
        <time>2023-01-08T19:30:12Z</time>
      </trkpt>
      <trkpt lat="49.05314" lon="1.84259">
        <ele>187</ele>
        <time>2023-01-08T19:30:23Z</time>
      </trkpt>
      <trkpt lat="49.05333" lon="1.84245">
        <ele>188</ele>
        <time>2023-01-08T19:30:51Z</time>
      </trkpt>
      <trkpt lat="49.05366" lon="1.84246">
        <ele>186</ele>
        <time>2023-01-08T19:31:35Z</time>
      </trkpt>
      <trkpt lat="49.05413" lon="1.84239">
        <ele>184</ele>
        <time>2023-01-08T19:32:38Z</time>
      </trkpt>
      <trkpt lat="49.0543" lon="1.84246">
        <ele>184</ele>
        <time>2023-01-08T19:33:02Z</time>
      </trkpt>
      <trkpt lat="49.05445" lon="1.84244">
        <ele>184</ele>
        <time>2023-01-08T19:33:22Z</time>
      </trkpt>
      <trkpt lat="49.05487" lon="1.84255">
        <ele>185</ele>
        <time>2023-01-08T19:34:19Z</time>
      </trkpt>
      <trkpt lat="49.05514" lon="1.84255">
        <ele>186</ele>
        <time>2023-01-08T19:34:55Z</time>
      </trkpt>
      <trkpt lat="49.05535" lon="1.84261">
        <ele>187</ele>
        <time>2023-01-08T19:35:23Z</time>
      </trkpt>
      <trkpt lat="49.05552" lon="1.84275">
        <ele>188</ele>
        <time>2023-01-08T19:35:49Z</time>
      </trkpt>
      <trkpt lat="49.05598" lon="1.84294">
        <ele>190</ele>
        <time>2023-01-08T19:36:53Z</time>
      </trkpt>
      <trkpt lat="49.05612" lon="1.84312">
        <ele>191</ele>
        <time>2023-01-08T19:37:17Z</time>
      </trkpt>
      <trkpt lat="49.05613" lon="1.84328">
        <ele>191</ele>
        <time>2023-01-08T19:37:31Z</time>
      </trkpt>
      <trkpt lat="49.05625" lon="1.84344">
        <ele>191</ele>
        <time>2023-01-08T19:37:53Z</time>
      </trkpt>
      <trkpt lat="49.05689" lon="1.84377">
        <ele>192</ele>
        <time>2023-01-08T19:39:23Z</time>
      </trkpt>
      <trkpt lat="49.05705" lon="1.84396">
        <ele>191</ele>
        <time>2023-01-08T19:39:50Z</time>
      </trkpt>
      <trkpt lat="49.05722" lon="1.844">
        <ele>193</ele>
        <time>2023-01-08T19:40:13Z</time>
      </trkpt>
      <trkpt lat="49.05759" lon="1.84424">
        <ele>194</ele>
        <time>2023-01-08T19:41:06Z</time>
      </trkpt>
      <trkpt lat="49.05784" lon="1.84443">
        <ele>193</ele>
        <time>2023-01-08T19:41:44Z</time>
      </trkpt>
      <trkpt lat="49.05795" lon="1.84459">
        <ele>192</ele>
        <time>2023-01-08T19:42:04Z</time>
      </trkpt>
      <trkpt lat="49.05821" lon="1.8448">
        <ele>192</ele>
        <time>2023-01-08T19:42:43Z</time>
      </trkpt>
      <trkpt lat="49.05843" lon="1.84505">
        <ele>191</ele>
        <time>2023-01-08T19:43:20Z</time>
      </trkpt>
      <trkpt lat="49.0588" lon="1.84578">
        <ele>185</ele>
        <time>2023-01-08T19:44:40Z</time>
      </trkpt>
      <trkpt lat="49.05957" lon="1.84643">
        <ele>175</ele>
        <time>2023-01-08T19:46:38Z</time>
      </trkpt>
      <trkpt lat="49.05985" lon="1.84691">
        <ele>169</ele>
        <time>2023-01-08T19:47:34Z</time>
      </trkpt>
      <trkpt lat="49.05994" lon="1.84695">
        <ele>169</ele>
        <time>2023-01-08T19:47:47Z</time>
      </trkpt>
      <trkpt lat="49.06021" lon="1.84686">
        <ele>169</ele>
        <time>2023-01-08T19:48:23Z</time>
      </trkpt>
      <trkpt lat="49.06038" lon="1.84685">
        <ele>168</ele>
        <time>2023-01-08T19:48:46Z</time>
      </trkpt>
      <trkpt lat="49.06046" lon="1.84696">
        <ele>167</ele>
        <time>2023-01-08T19:49:01Z</time>
      </trkpt>
      <trkpt lat="49.0606" lon="1.8468">
        <ele>167</ele>
        <time>2023-01-08T19:49:24Z</time>
      </trkpt>
      <trkpt lat="49.06082" lon="1.84664">
        <ele>167</ele>
        <time>2023-01-08T19:49:56Z</time>
      </trkpt>
      <trkpt lat="49.06098" lon="1.84671">
        <ele>166</ele>
        <time>2023-01-08T19:50:19Z</time>
      </trkpt>
      <trkpt lat="49.06093" lon="1.84654">
        <ele>168</ele>
        <time>2023-01-08T19:50:35Z</time>
      </trkpt>
      <trkpt lat="49.06102" lon="1.84657">
        <ele>167</ele>
        <time>2023-01-08T19:50:47Z</time>
      </trkpt>
      <trkpt lat="49.06128" lon="1.84645">
        <ele>165</ele>
        <time>2023-01-08T19:51:23Z</time>
      </trkpt>
      <trkpt lat="49.06128" lon="1.84635">
        <ele>166</ele>
        <time>2023-01-08T19:51:32Z</time>
      </trkpt>
      <trkpt lat="49.06154" lon="1.84603">
        <ele>165</ele>
        <time>2023-01-08T19:52:17Z</time>
      </trkpt>
      <trkpt lat="49.06161" lon="1.84577">
        <ele>165</ele>
        <time>2023-01-08T19:52:41Z</time>
      </trkpt>
      <trkpt lat="49.06188" lon="1.84537">
        <ele>165</ele>
        <time>2023-01-08T19:53:32Z</time>
      </trkpt>
      <trkpt lat="49.06199" lon="1.84531">
        <ele>165</ele>
        <time>2023-01-08T19:53:47Z</time>
      </trkpt>
      <trkpt lat="49.06198" lon="1.84521">
        <ele>165</ele>
        <time>2023-01-08T19:53:56Z</time>
      </trkpt>
      <trkpt lat="49.06199" lon="1.84526">
        <ele>165</ele>
        <time>2023-01-08T19:54:01Z</time>
      </trkpt>
      <trkpt lat="49.06204" lon="1.84498">
        <ele>165</ele>
        <time>2023-01-08T19:54:26Z</time>
      </trkpt>
      <trkpt lat="49.06211" lon="1.84485">
        <ele>165</ele>
        <time>2023-01-08T19:54:41Z</time>
      </trkpt>
      <trkpt lat="49.06253" lon="1.8447">
        <ele>162</ele>
        <time>2023-01-08T19:55:38Z</time>
      </trkpt>
      <trkpt lat="49.06295" lon="1.84444">
        <ele>163</ele>
        <time>2023-01-08T19:56:39Z</time>
      </trkpt>
      <trkpt lat="49.06327" lon="1.84436">
        <ele>163</ele>
        <time>2023-01-08T19:57:22Z</time>
      </trkpt>
      <trkpt lat="49.06352" lon="1.84402">
        <ele>162</ele>
        <time>2023-01-08T19:58:07Z</time>
      </trkpt>
      <trkpt lat="49.06372" lon="1.84382">
        <ele>163</ele>
        <time>2023-01-08T19:58:39Z</time>
      </trkpt>
      <trkpt lat="49.06393" lon="1.84347">
        <ele>163</ele>
        <time>2023-01-08T19:59:20Z</time>
      </trkpt>
      <trkpt lat="49.06405" lon="1.84335">
        <ele>163</ele>
        <time>2023-01-08T19:59:39Z</time>
      </trkpt>
      <trkpt lat="49.06437" lon="1.84318">
        <ele>163</ele>
        <time>2023-01-08T20:00:24Z</time>
      </trkpt>
      <trkpt lat="49.06445" lon="1.84308">
        <ele>162</ele>
        <time>2023-01-08T20:00:38Z</time>
      </trkpt>
      <trkpt lat="49.06458" lon="1.84305">
        <ele>162</ele>
        <time>2023-01-08T20:00:56Z</time>
      </trkpt>
      <trkpt lat="49.06498" lon="1.84307">
        <ele>164</ele>
        <time>2023-01-08T20:01:49Z</time>
      </trkpt>
      <trkpt lat="49.06534" lon="1.84284">
        <ele>162</ele>
        <time>2023-01-08T20:02:41Z</time>
      </trkpt>
      <trkpt lat="49.06559" lon="1.84274">
        <ele>161</ele>
        <time>2023-01-08T20:03:16Z</time>
      </trkpt>
      <trkpt lat="49.06593" lon="1.84269">
        <ele>160</ele>
        <time>2023-01-08T20:04:01Z</time>
      </trkpt>
      <trkpt lat="49.06609" lon="1.84262">
        <ele>160</ele>
        <time>2023-01-08T20:04:24Z</time>
      </trkpt>
      <trkpt lat="49.06623" lon="1.84263">
        <ele>160</ele>
        <time>2023-01-08T20:04:42Z</time>
      </trkpt>
      <trkpt lat="49.0664" lon="1.84254">
        <ele>159</ele>
        <time>2023-01-08T20:05:06Z</time>
      </trkpt>
      <trkpt lat="49.06679" lon="1.84254">
        <ele>160</ele>
        <time>2023-01-08T20:05:58Z</time>
      </trkpt>
      <trkpt lat="49.06723" lon="1.84222">
        <ele>162</ele>
        <time>2023-01-08T20:07:03Z</time>
      </trkpt>
      <trkpt lat="49.06756" lon="1.84209">
        <ele>164</ele>
        <time>2023-01-08T20:07:49Z</time>
      </trkpt>
      <trkpt lat="49.06813" lon="1.8422">
        <ele>173</ele>
        <time>2023-01-08T20:09:05Z</time>
      </trkpt>
      <trkpt lat="49.06859" lon="1.84196">
        <ele>178</ele>
        <time>2023-01-08T20:10:10Z</time>
      </trkpt>
      <trkpt lat="49.06877" lon="1.84191">
        <ele>180</ele>
        <time>2023-01-08T20:10:35Z</time>
      </trkpt>
      <trkpt lat="49.06883" lon="1.84185">
        <ele>181</ele>
        <time>2023-01-08T20:10:44Z</time>
      </trkpt>
      <trkpt lat="49.06891" lon="1.84162">
        <ele>182</ele>
        <time>2023-01-08T20:11:07Z</time>
      </trkpt>
      <trkpt lat="49.069" lon="1.84156">
        <ele>184</ele>
        <time>2023-01-08T20:11:20Z</time>
      </trkpt>
      <trkpt lat="49.06914" lon="1.84152">
        <ele>186</ele>
        <time>2023-01-08T20:11:39Z</time>
      </trkpt>
      <trkpt lat="49.06915" lon="1.84155">
        <ele>186</ele>
        <time>2023-01-08T20:11:42Z</time>
      </trkpt>
      <trkpt lat="49.06913" lon="1.84146">
        <ele>186</ele>
        <time>2023-01-08T20:11:50Z</time>
      </trkpt>
      <trkpt lat="49.06917" lon="1.84134">
        <ele>187</ele>
        <time>2023-01-08T20:12:02Z</time>
      </trkpt>
      <trkpt lat="49.0695" lon="1.8406">
        <ele>193</ele>
        <time>2023-01-08T20:13:20Z</time>
      </trkpt>
      <trkpt lat="49.06957" lon="1.84029">
        <ele>195</ele>
        <time>2023-01-08T20:13:49Z</time>
      </trkpt>
      <trkpt lat="49.06965" lon="1.84019">
        <ele>197</ele>
        <time>2023-01-08T20:14:03Z</time>
      </trkpt>
      <trkpt lat="49.0697" lon="1.83985">
        <ele>198</ele>
        <time>2023-01-08T20:14:33Z</time>
      </trkpt>
      <trkpt lat="49.0698" lon="1.83957">
        <ele>199</ele>
        <time>2023-01-08T20:15:01Z</time>
      </trkpt>
      <trkpt lat="49.0699" lon="1.83948">
        <ele>200</ele>
        <time>2023-01-08T20:15:17Z</time>
      </trkpt>
      <trkpt lat="49.06995" lon="1.83937">
        <ele>201</ele>
        <time>2023-01-08T20:15:29Z</time>
      </trkpt>
      <trkpt lat="49.06995" lon="1.83924">
        <ele>200</ele>
        <time>2023-01-08T20:15:40Z</time>
      </trkpt>
      <trkpt lat="49.06983" lon="1.83909">
        <ele>198</ele>
        <time>2023-01-08T20:16:01Z</time>
      </trkpt>
      <trkpt lat="49.06983" lon="1.83895">
        <ele>197</ele>
        <time>2023-01-08T20:16:13Z</time>
      </trkpt>
      <trkpt lat="49.06992" lon="1.83885">
        <ele>198</ele>
        <time>2023-01-08T20:16:28Z</time>
      </trkpt>
      <trkpt lat="49.07018" lon="1.83879">
        <ele>200</ele>
        <time>2023-01-08T20:17:03Z</time>
      </trkpt>
      <trkpt lat="49.07022" lon="1.83867">
        <ele>200</ele>
        <time>2023-01-08T20:17:15Z</time>
      </trkpt>
      <trkpt lat="49.07038" lon="1.83846">
        <ele>200</ele>
        <time>2023-01-08T20:17:43Z</time>
      </trkpt>
      <trkpt lat="49.07051" lon="1.83808">
        <ele>201</ele>
        <time>2023-01-08T20:18:20Z</time>
      </trkpt>
      <trkpt lat="49.07057" lon="1.83805">
        <ele>201</ele>
        <time>2023-01-08T20:18:29Z</time>
      </trkpt>
      <trkpt lat="49.07065" lon="1.83789">
        <ele>202</ele>
        <time>2023-01-08T20:18:46Z</time>
      </trkpt>
      <trkpt lat="49.0708" lon="1.83777">
        <ele>203</ele>
        <time>2023-01-08T20:19:09Z</time>
      </trkpt>
      <trkpt lat="49.07089" lon="1.8376">
        <ele>204</ele>
        <time>2023-01-08T20:19:28Z</time>
      </trkpt>
      <trkpt lat="49.07117" lon="1.83744">
        <ele>204</ele>
        <time>2023-01-08T20:20:08Z</time>
      </trkpt>
      <trkpt lat="49.07132" lon="1.83729">
        <ele>204</ele>
        <time>2023-01-08T20:20:32Z</time>
      </trkpt>
      <trkpt lat="49.07178" lon="1.83665">
        <ele>204</ele>
        <time>2023-01-08T20:21:55Z</time>
      </trkpt>
      <trkpt lat="49.07194" lon="1.83631">
        <ele>203</ele>
        <time>2023-01-08T20:22:31Z</time>
      </trkpt>
      <trkpt lat="49.07222" lon="1.83604">
        <ele>203</ele>
        <time>2023-01-08T20:23:16Z</time>
      </trkpt>
      <trkpt lat="49.07228" lon="1.8357">
        <ele>203</ele>
        <time>2023-01-08T20:23:46Z</time>
      </trkpt>
      <trkpt lat="49.07246" lon="1.83557">
        <ele>204</ele>
        <time>2023-01-08T20:24:13Z</time>
      </trkpt>
      <trkpt lat="49.0726" lon="1.8354">
        <ele>203</ele>
        <time>2023-01-08T20:24:37Z</time>
      </trkpt>
      <trkpt lat="49.0727" lon="1.83537">
        <ele>203</ele>
        <time>2023-01-08T20:24:50Z</time>
      </trkpt>
      <trkpt lat="49.07284" lon="1.83514">
        <ele>202</ele>
        <time>2023-01-08T20:25:18Z</time>
      </trkpt>
      <trkpt lat="49.07308" lon="1.83495">
        <ele>202</ele>
        <time>2023-01-08T20:25:54Z</time>
      </trkpt>
      <trkpt lat="49.07317" lon="1.83498">
        <ele>201</ele>
        <time>2023-01-08T20:26:06Z</time>
      </trkpt>
      <trkpt lat="49.07323" lon="1.83513">
        <ele>202</ele>
        <time>2023-01-08T20:26:22Z</time>
      </trkpt>
      <trkpt lat="49.07322" lon="1.83516">
        <ele>202</ele>
        <time>2023-01-08T20:26:25Z</time>
      </trkpt>
      <trkpt lat="49.07319" lon="1.83511">
        <ele>202</ele>
        <time>2023-01-08T20:26:30Z</time>
      </trkpt>
      <trkpt lat="49.07315" lon="1.83521">
        <ele>202</ele>
        <time>2023-01-08T20:26:41Z</time>
      </trkpt>
      <trkpt lat="49.0732" lon="1.83531">
        <ele>202</ele>
        <time>2023-01-08T20:26:52Z</time>
      </trkpt>
      <trkpt lat="49.07335" lon="1.83514">
        <ele>201</ele>
        <time>2023-01-08T20:27:17Z</time>
      </trkpt>
      <trkpt lat="49.07345" lon="1.83516">
        <ele>201</ele>
        <time>2023-01-08T20:27:30Z</time>
      </trkpt>
      <trkpt lat="49.07358" lon="1.83531">
        <ele>201</ele>
        <time>2023-01-08T20:27:52Z</time>
      </trkpt>
      <trkpt lat="49.07394" lon="1.83557">
        <ele>201</ele>
        <time>2023-01-08T20:28:45Z</time>
      </trkpt>
      <trkpt lat="49.07411" lon="1.83558">
        <ele>200</ele>
        <time>2023-01-08T20:29:08Z</time>
      </trkpt>
      <trkpt lat="49.07423" lon="1.83581">
        <ele>201</ele>
        <time>2023-01-08T20:29:33Z</time>
      </trkpt>
      <trkpt lat="49.07468" lon="1.83607">
        <ele>201</ele>
        <time>2023-01-08T20:30:38Z</time>
      </trkpt>
      <trkpt lat="49.0753" lon="1.83653">
        <ele>200</ele>
        <time>2023-01-08T20:32:10Z</time>
      </trkpt>
      <trkpt lat="49.07551" lon="1.83661">
        <ele>200</ele>
        <time>2023-01-08T20:32:38Z</time>
      </trkpt>
      <trkpt lat="49.07585" lon="1.83685">
        <ele>199</ele>
        <time>2023-01-08T20:33:28Z</time>
      </trkpt>
      <trkpt lat="49.07606" lon="1.83693">
        <ele>199</ele>
        <time>2023-01-08T20:33:57Z</time>
      </trkpt>
      <trkpt lat="49.07626" lon="1.8371">
        <ele>199</ele>
        <time>2023-01-08T20:34:28Z</time>
      </trkpt>
      <trkpt lat="49.07669" lon="1.83725">
        <ele>198</ele>
        <time>2023-01-08T20:35:27Z</time>
      </trkpt>
      <trkpt lat="49.07679" lon="1.8372">
        <ele>198</ele>
        <time>2023-01-08T20:35:41Z</time>
      </trkpt>
      <trkpt lat="49.07686" lon="1.83663">
        <ele>196</ele>
        <time>2023-01-08T20:36:31Z</time>
      </trkpt>
      <trkpt lat="49.07682" lon="1.83613">
        <ele>196</ele>
        <time>2023-01-08T20:37:16Z</time>
      </trkpt>
      <trkpt lat="49.07682" lon="1.83508">
        <ele>194</ele>
        <time>2023-01-08T20:38:47Z</time>
      </trkpt>
      <trkpt lat="49.07692" lon="1.83445">
        <ele>193</ele>
        <time>2023-01-08T20:39:44Z</time>
      </trkpt>
      <trkpt lat="49.077" lon="1.8343">
        <ele>192</ele>
        <time>2023-01-08T20:40:01Z</time>
      </trkpt>
      <trkpt lat="49.07803" lon="1.83486">
        <ele>181</ele>
        <time>2023-01-08T20:42:27Z</time>
      </trkpt>
      <trkpt lat="49.07838" lon="1.83508">
        <ele>177</ele>
        <time>2023-01-08T20:43:17Z</time>
      </trkpt>
      <trkpt lat="49.07861" lon="1.83531">
        <ele>174</ele>
        <time>2023-01-08T20:43:54Z</time>
      </trkpt>
      <trkpt lat="49.07931" lon="1.83575">
        <ele>163</ele>
        <time>2023-01-08T20:45:35Z</time>
      </trkpt>
      <trkpt lat="49.07937" lon="1.83581">
        <ele>163</ele>
        <time>2023-01-08T20:45:45Z</time>
      </trkpt>
      <trkpt lat="49.07943" lon="1.83599">
        <ele>162</ele>
        <time>2023-01-08T20:46:02Z</time>
      </trkpt>
      <trkpt lat="49.07972" lon="1.8363">
        <ele>160</ele>
        <time>2023-01-08T20:46:49Z</time>
      </trkpt>
      <trkpt lat="49.07994" lon="1.8367">
        <ele>158</ele>
        <time>2023-01-08T20:47:35Z</time>
      </trkpt>
      <trkpt lat="49.0801" lon="1.83713">
        <ele>155</ele>
        <time>2023-01-08T20:48:18Z</time>
      </trkpt>
      <trkpt lat="49.08036" lon="1.83735">
        <ele>151</ele>
        <time>2023-01-08T20:48:58Z</time>
      </trkpt>
      <trkpt lat="49.08077" lon="1.83781">
        <ele>146</ele>
        <time>2023-01-08T20:50:06Z</time>
      </trkpt>
      <trkpt lat="49.08102" lon="1.83794">
        <ele>143</ele>
        <time>2023-01-08T20:50:41Z</time>
      </trkpt>
      <trkpt lat="49.08111" lon="1.83795">
        <ele>141</ele>
        <time>2023-01-08T20:50:53Z</time>
      </trkpt>
      <trkpt lat="49.08135" lon="1.83787">
        <ele>139</ele>
        <time>2023-01-08T20:51:26Z</time>
      </trkpt>
      <trkpt lat="49.08146" lon="1.8377">
        <ele>137</ele>
        <time>2023-01-08T20:51:47Z</time>
      </trkpt>
      <trkpt lat="49.08156" lon="1.8377">
        <ele>136</ele>
        <time>2023-01-08T20:52:00Z</time>
      </trkpt>
      <trkpt lat="49.08173" lon="1.83777">
        <ele>134</ele>
        <time>2023-01-08T20:52:24Z</time>
      </trkpt>
      <trkpt lat="49.08285" lon="1.83896">
        <ele>125</ele>
        <time>2023-01-08T20:55:26Z</time>
      </trkpt>
      <trkpt lat="49.08313" lon="1.83918">
        <ele>124</ele>
        <time>2023-01-08T20:56:08Z</time>
      </trkpt>
      <trkpt lat="49.0833" lon="1.83924">
        <ele>123</ele>
        <time>2023-01-08T20:56:31Z</time>
      </trkpt>
      <trkpt lat="49.08355" lon="1.84092">
        <ele>121</ele>
        <time>2023-01-08T20:59:02Z</time>
      </trkpt>
      <trkpt lat="49.08372" lon="1.84147">
        <ele>122</ele>
        <time>2023-01-08T20:59:55Z</time>
      </trkpt>
      <trkpt lat="49.08378" lon="1.8424">
        <ele>123</ele>
        <time>2023-01-08T21:01:17Z</time>
      </trkpt>
      <trkpt lat="49.0838" lon="1.84409">
        <ele>123</ele>
        <time>2023-01-08T21:03:44Z</time>
      </trkpt>
      <trkpt lat="49.08329" lon="1.84736">
        <ele>118</ele>
        <time>2023-01-08T21:08:38Z</time>
      </trkpt>
      <trkpt lat="49.08321" lon="1.84817">
        <ele>118</ele>
        <time>2023-01-08T21:09:50Z</time>
      </trkpt>
      <trkpt lat="49.08308" lon="1.84874">
        <ele>119</ele>
        <time>2023-01-08T21:10:42Z</time>
      </trkpt>
      <trkpt lat="49.08308" lon="1.8491">
        <ele>119</ele>
        <time>2023-01-08T21:11:14Z</time>
      </trkpt>
      <trkpt lat="49.08299" lon="1.84954">
        <ele>118</ele>
        <time>2023-01-08T21:11:54Z</time>
      </trkpt>
      <trkpt lat="49.08297" lon="1.85005">
        <ele>117</ele>
        <time>2023-01-08T21:12:39Z</time>
      </trkpt>
      <trkpt lat="49.083" lon="1.85013">
        <ele>117</ele>
        <time>2023-01-08T21:12:47Z</time>
      </trkpt>
      <trkpt lat="49.08324" lon="1.85012">
        <ele>118</ele>
        <time>2023-01-08T21:13:19Z</time>
      </trkpt>
      <trkpt lat="49.0845" lon="1.85037">
        <ele>116</ele>
        <time>2023-01-08T21:16:08Z</time>
      </trkpt>
      <trkpt lat="49.08468" lon="1.85049">
        <ele>116</ele>
        <time>2023-01-08T21:16:35Z</time>
      </trkpt>
      <trkpt lat="49.08472" lon="1.85057">
        <ele>116</ele>
        <time>2023-01-08T21:16:43Z</time>
      </trkpt>
      <trkpt lat="49.0848" lon="1.85137">
        <ele>116</ele>
        <time>2023-01-08T21:17:54Z</time>
      </trkpt>
      <trkpt lat="49.08495" lon="1.85229">
        <ele>114</ele>
        <time>2023-01-08T21:19:17Z</time>
      </trkpt>
      <trkpt lat="49.08537" lon="1.85451">
        <ele>111</ele>
        <time>2023-01-08T21:22:39Z</time>
      </trkpt>
      <trkpt lat="49.08549" lon="1.85581">
        <ele>109</ele>
        <time>2023-01-08T21:24:34Z</time>
      </trkpt>
      <trkpt lat="49.08556" lon="1.85617">
        <ele>109</ele>
        <time>2023-01-08T21:25:07Z</time>
      </trkpt>
      <trkpt lat="49.08576" lon="1.85688">
        <ele>109</ele>
        <time>2023-01-08T21:26:14Z</time>
      </trkpt>
      <trkpt lat="49.08608" lon="1.85851">
        <ele>106</ele>
        <time>2023-01-08T21:28:43Z</time>
      </trkpt>
      <trkpt lat="49.0865" lon="1.85935">
        <ele>103</ele>
        <time>2023-01-08T21:30:15Z</time>
      </trkpt>
      <trkpt lat="49.08672" lon="1.86">
        <ele>100</ele>
        <time>2023-01-08T21:31:19Z</time>
      </trkpt>
      <trkpt lat="49.08698" lon="1.86108">
        <ele>99</ele>
        <time>2023-01-08T21:33:00Z</time>
      </trkpt>
      <trkpt lat="49.08705" lon="1.86124">
        <ele>99</ele>
        <time>2023-01-08T21:33:17Z</time>
      </trkpt>
      <trkpt lat="49.087" lon="1.86156">
        <ele>99</ele>
        <time>2023-01-08T21:33:45Z</time>
      </trkpt>
      <trkpt lat="49.08712" lon="1.86407">
        <ele>99</ele>
        <time>2023-01-08T21:37:25Z</time>
      </trkpt>
      <trkpt lat="49.08697" lon="1.86509">
        <ele>100</ele>
        <time>2023-01-08T21:38:57Z</time>
      </trkpt>
      <trkpt lat="49.08699" lon="1.86608">
        <ele>98</ele>
        <time>2023-01-08T21:40:23Z</time>
      </trkpt>
      <trkpt lat="49.08737" lon="1.86747">
        <ele>98</ele>
        <time>2023-01-08T21:42:35Z</time>
      </trkpt>
      <trkpt lat="49.08783" lon="1.86848">
        <ele>96</ele>
        <time>2023-01-08T21:44:22Z</time>
      </trkpt>
      <trkpt lat="49.08803" lon="1.86909">
        <ele>95</ele>
        <time>2023-01-08T21:45:22Z</time>
      </trkpt>
      <trkpt lat="49.08832" lon="1.86963">
        <ele>94</ele>
        <time>2023-01-08T21:46:23Z</time>
      </trkpt>
      <trkpt lat="49.08857" lon="1.87038">
        <ele>93</ele>
        <time>2023-01-08T21:47:37Z</time>
      </trkpt>
      <trkpt lat="49.0885" lon="1.87055">
        <ele>93</ele>
        <time>2023-01-08T21:47:54Z</time>
      </trkpt>
      <trkpt lat="49.08794" lon="1.87128">
        <ele>90</ele>
        <time>2023-01-08T21:49:32Z</time>
      </trkpt>
      <trkpt lat="49.0877" lon="1.8715">
        <ele>90</ele>
        <time>2023-01-08T21:50:10Z</time>
      </trkpt>
      <trkpt lat="49.0876" lon="1.87149">
        <ele>90</ele>
        <time>2023-01-08T21:50:23Z</time>
      </trkpt>
      <trkpt lat="49.0873" lon="1.87122">
        <ele>89</ele>
        <time>2023-01-08T21:51:10Z</time>
      </trkpt>
      <trkpt lat="49.08721" lon="1.87121">
        <ele>89</ele>
        <time>2023-01-08T21:51:22Z</time>
      </trkpt>
      <trkpt lat="49.08717" lon="1.87109">
        <ele>89</ele>
        <time>2023-01-08T21:51:33Z</time>
      </trkpt>
      <trkpt lat="49.08703" lon="1.8709">
        <ele>89</ele>
        <time>2023-01-08T21:51:58Z</time>
      </trkpt>
      <trkpt lat="49.08697" lon="1.87092">
        <ele>89</ele>
        <time>2023-01-08T21:52:07Z</time>
      </trkpt>
      <trkpt lat="49.08701" lon="1.87094">
        <ele>89</ele>
        <time>2023-01-08T21:52:12Z</time>
      </trkpt>
      <trkpt lat="49.08692" lon="1.87102">
        <ele>89</ele>
        <time>2023-01-08T21:52:26Z</time>
      </trkpt>
      <trkpt lat="49.08694" lon="1.87073">
        <ele>89</ele>
        <time>2023-01-08T21:52:52Z</time>
      </trkpt>
      <trkpt lat="49.087" lon="1.87078">
        <ele>89</ele>
        <time>2023-01-08T21:53:01Z</time>
      </trkpt>
      <trkpt lat="49.08705" lon="1.87075">
        <ele>89</ele>
        <time>2023-01-08T21:53:08Z</time>
      </trkpt>
      <trkpt lat="49.08722" lon="1.87112">
        <ele>89</ele>
        <time>2023-01-08T21:53:47Z</time>
      </trkpt>
      <trkpt lat="49.087" lon="1.87127">
        <ele>89</ele>
        <time>2023-01-08T21:54:19Z</time>
      </trkpt>
      <trkpt lat="49.08672" lon="1.87135">
        <ele>89</ele>
        <time>2023-01-08T21:54:57Z</time>
      </trkpt>
      <trkpt lat="49.08653" lon="1.87181">
        <ele>89</ele>
        <time>2023-01-08T21:55:45Z</time>
      </trkpt>
      <trkpt lat="49.08614" lon="1.87204">
        <ele>90</ele>
        <time>2023-01-08T21:56:41Z</time>
      </trkpt>
      <trkpt lat="49.08592" lon="1.87245">
        <ele>89</ele>
        <time>2023-01-08T21:57:27Z</time>
      </trkpt>
      <trkpt lat="49.08582" lon="1.87248">
        <ele>89</ele>
        <time>2023-01-08T21:57:41Z</time>
      </trkpt>
      <trkpt lat="49.08558" lon="1.87238">
        <ele>90</ele>
        <time>2023-01-08T21:58:14Z</time>
      </trkpt>
      <trkpt lat="49.08534" lon="1.87234">
        <ele>90</ele>
        <time>2023-01-08T21:58:46Z</time>
      </trkpt>
      <trkpt lat="49.08524" lon="1.872">
        <ele>91</ele>
        <time>2023-01-08T21:59:19Z</time>
      </trkpt>
      <trkpt lat="49.08493" lon="1.87128">
        <ele>91</ele>
        <time>2023-01-08T22:00:34Z</time>
      </trkpt>
      <trkpt lat="49.08443" lon="1.87081">
        <ele>92</ele>
        <time>2023-01-08T22:01:52Z</time>
      </trkpt>
      <trkpt lat="49.08427" lon="1.87071">
        <ele>93</ele>
        <time>2023-01-08T22:02:15Z</time>
      </trkpt>
      <trkpt lat="49.08399" lon="1.87036">
        <ele>95</ele>
        <time>2023-01-08T22:03:04Z</time>
      </trkpt>
      <trkpt lat="49.08376" lon="1.87015">
        <ele>96</ele>
        <time>2023-01-08T22:03:39Z</time>
      </trkpt>
      <trkpt lat="49.08335" lon="1.86945">
        <ele>99</ele>
        <time>2023-01-08T22:05:02Z</time>
      </trkpt>
      <trkpt lat="49.08305" lon="1.86911">
        <ele>101</ele>
        <time>2023-01-08T22:05:51Z</time>
      </trkpt>
      <trkpt lat="49.08265" lon="1.86849">
        <ele>104</ele>
        <time>2023-01-08T22:07:07Z</time>
      </trkpt>
      <trkpt lat="49.08243" lon="1.86834">
        <ele>105</ele>
        <time>2023-01-08T22:07:40Z</time>
      </trkpt>
      <trkpt lat="49.08208" lon="1.86829">
        <ele>105</ele>
        <time>2023-01-08T22:08:27Z</time>
      </trkpt>
      <trkpt lat="49.08194" lon="1.86822">
        <ele>105</ele>
        <time>2023-01-08T22:08:46Z</time>
      </trkpt>
      <trkpt lat="49.08157" lon="1.86786">
        <ele>105</ele>
        <time>2023-01-08T22:09:45Z</time>
      </trkpt>
      <trkpt lat="49.08122" lon="1.86762">
        <ele>105</ele>
        <time>2023-01-08T22:10:36Z</time>
      </trkpt>
      <trkpt lat="49.08086" lon="1.86725">
        <ele>104</ele>
        <time>2023-01-08T22:11:34Z</time>
      </trkpt>
      <trkpt lat="49.08068" lon="1.86714">
        <ele>105</ele>
        <time>2023-01-08T22:12:00Z</time>
      </trkpt>
      <trkpt lat="49.08022" lon="1.86669">
        <ele>105</ele>
        <time>2023-01-08T22:13:13Z</time>
      </trkpt>
      <trkpt lat="49.07996" lon="1.86623">
        <ele>104</ele>
        <time>2023-01-08T22:14:06Z</time>
      </trkpt>
      <trkpt lat="49.07947" lon="1.86509">
        <ele>108</ele>
        <time>2023-01-08T22:16:05Z</time>
      </trkpt>
      <trkpt lat="49.07924" lon="1.86391">
        <ele>108</ele>
        <time>2023-01-08T22:17:53Z</time>
      </trkpt>
      <trkpt lat="49.07906" lon="1.86359">
        <ele>109</ele>
        <time>2023-01-08T22:18:29Z</time>
      </trkpt>
      <trkpt lat="49.07857" lon="1.86336">
        <ele>116</ele>
        <time>2023-01-08T22:19:38Z</time>
      </trkpt>
      <trkpt lat="49.07847" lon="1.8634">
        <ele>117</ele>
        <time>2023-01-08T22:19:52Z</time>
      </trkpt>
      <trkpt lat="49.07825" lon="1.86336">
        <ele>120</ele>
        <time>2023-01-08T22:20:21Z</time>
      </trkpt>
      <trkpt lat="49.07791" lon="1.86341">
        <ele>122</ele>
        <time>2023-01-08T22:21:07Z</time>
      </trkpt>
      <trkpt lat="49.07782" lon="1.86334">
        <ele>123</ele>
        <time>2023-01-08T22:21:20Z</time>
      </trkpt>
      <trkpt lat="49.0774" lon="1.86262">
        <ele>126</ele>
        <time>2023-01-08T22:22:45Z</time>
      </trkpt>
      <trkpt lat="49.07719" lon="1.86236">
        <ele>126</ele>
        <time>2023-01-08T22:23:21Z</time>
      </trkpt>
      <trkpt lat="49.0767" lon="1.86146">
        <ele>122</ele>
        <time>2023-01-08T22:25:03Z</time>
      </trkpt>
      <trkpt lat="49.07639" lon="1.86113">
        <ele>124</ele>
        <time>2023-01-08T22:25:53Z</time>
      </trkpt>
      <trkpt lat="49.07625" lon="1.86078">
        <ele>124</ele>
        <time>2023-01-08T22:26:29Z</time>
      </trkpt>
      <trkpt lat="49.07591" lon="1.86032">
        <ele>126</ele>
        <time>2023-01-08T22:27:30Z</time>
      </trkpt>
      <trkpt lat="49.07586" lon="1.86046">
        <ele>126</ele>
        <time>2023-01-08T22:27:44Z</time>
      </trkpt>
      <trkpt lat="49.07544" lon="1.86061">
        <ele>126</ele>
        <time>2023-01-08T22:28:41Z</time>
      </trkpt>
      <trkpt lat="49.07523" lon="1.8605">
        <ele>126</ele>
        <time>2023-01-08T22:29:11Z</time>
      </trkpt>
      <trkpt lat="49.07499" lon="1.86052">
        <ele>126</ele>
        <time>2023-01-08T22:29:43Z</time>
      </trkpt>
      <trkpt lat="49.07481" lon="1.86082">
        <ele>126</ele>
        <time>2023-01-08T22:30:19Z</time>
      </trkpt>
      <trkpt lat="49.0746" lon="1.86106">
        <ele>126</ele>
        <time>2023-01-08T22:30:54Z</time>
      </trkpt>
      <trkpt lat="49.07429" lon="1.86163">
        <ele>127</ele>
        <time>2023-01-08T22:31:58Z</time>
      </trkpt>
      <trkpt lat="49.07375" lon="1.8623">
        <ele>127</ele>
        <time>2023-01-08T22:33:31Z</time>
      </trkpt>
      <trkpt lat="49.0734" lon="1.86245">
        <ele>127</ele>
        <time>2023-01-08T22:34:20Z</time>
      </trkpt>
      <trkpt lat="49.0733" lon="1.86244">
        <ele>127</ele>
        <time>2023-01-08T22:34:33Z</time>
      </trkpt>
      <trkpt lat="49.07323" lon="1.8625">
        <ele>128</ele>
        <time>2023-01-08T22:34:44Z</time>
      </trkpt>
      <trkpt lat="49.07273" lon="1.86269">
        <ele>133</ele>
        <time>2023-01-08T22:35:53Z</time>
      </trkpt>
      <trkpt lat="49.07256" lon="1.86283">
        <ele>135</ele>
        <time>2023-01-08T22:36:18Z</time>
      </trkpt>
      <trkpt lat="49.07224" lon="1.86297">
        <ele>139</ele>
        <time>2023-01-08T22:37:03Z</time>
      </trkpt>
      <trkpt lat="49.07181" lon="1.86305">
        <ele>143</ele>
        <time>2023-01-08T22:38:01Z</time>
      </trkpt>
      <trkpt lat="49.07169" lon="1.86316">
        <ele>145</ele>
        <time>2023-01-08T22:38:19Z</time>
      </trkpt>
      <trkpt lat="49.07144" lon="1.86326">
        <ele>149</ele>
        <time>2023-01-08T22:38:54Z</time>
      </trkpt>
      <trkpt lat="49.07133" lon="1.86317">
        <ele>151</ele>
        <time>2023-01-08T22:39:10Z</time>
      </trkpt>
      <trkpt lat="49.07117" lon="1.86313">
        <ele>153</ele>
        <time>2023-01-08T22:39:32Z</time>
      </trkpt>
      <trkpt lat="49.07112" lon="1.86295">
        <ele>152</ele>
        <time>2023-01-08T22:39:49Z</time>
      </trkpt>
      <trkpt lat="49.07103" lon="1.86281">
        <ele>153</ele>
        <time>2023-01-08T22:40:06Z</time>
      </trkpt>
      <trkpt lat="49.07094" lon="1.86237">
        <ele>151</ele>
        <time>2023-01-08T22:40:47Z</time>
      </trkpt>
      <trkpt lat="49.07076" lon="1.86187">
        <ele>150</ele>
        <time>2023-01-08T22:41:36Z</time>
      </trkpt>
      <trkpt lat="49.07036" lon="1.8612">
        <ele>152</ele>
        <time>2023-01-08T22:42:56Z</time>
      </trkpt>
      <trkpt lat="49.07015" lon="1.86072">
        <ele>154</ele>
        <time>2023-01-08T22:43:46Z</time>
      </trkpt>
      <trkpt lat="49.06995" lon="1.85979">
        <ele>155</ele>
        <time>2023-01-08T22:45:12Z</time>
      </trkpt>
      <trkpt lat="49.06998" lon="1.85965">
        <ele>154</ele>
        <time>2023-01-08T22:45:25Z</time>
      </trkpt>
      <trkpt lat="49.06996" lon="1.8595">
        <ele>154</ele>
        <time>2023-01-08T22:45:38Z</time>
      </trkpt>
      <trkpt lat="49.06968" lon="1.85867">
        <ele>158</ele>
        <time>2023-01-08T22:47:00Z</time>
      </trkpt>
      <trkpt lat="49.06943" lon="1.85831">
        <ele>161</ele>
        <time>2023-01-08T22:47:45Z</time>
      </trkpt>
      <trkpt lat="49.06917" lon="1.85808">
        <ele>164</ele>
        <time>2023-01-08T22:48:26Z</time>
      </trkpt>
      <trkpt lat="49.06884" lon="1.85764">
        <ele>166</ele>
        <time>2023-01-08T22:49:24Z</time>
      </trkpt>
      <trkpt lat="49.06865" lon="1.85674">
        <ele>164</ele>
        <time>2023-01-08T22:50:47Z</time>
      </trkpt>
      <trkpt lat="49.06869" lon="1.85651">
        <ele>163</ele>
        <time>2023-01-08T22:51:08Z</time>
      </trkpt>
      <trkpt lat="49.06866" lon="1.85595">
        <ele>162</ele>
        <time>2023-01-08T22:51:57Z</time>
      </trkpt>
      <trkpt lat="49.06855" lon="1.85568">
        <ele>163</ele>
        <time>2023-01-08T22:52:24Z</time>
      </trkpt>
      <trkpt lat="49.06838" lon="1.85554">
        <ele>165</ele>
        <time>2023-01-08T22:52:50Z</time>
      </trkpt>
      <trkpt lat="49.068" lon="1.8555">
        <ele>165</ele>
        <time>2023-01-08T22:53:41Z</time>
      </trkpt>
      <trkpt lat="49.06775" lon="1.85558">
        <ele>164</ele>
        <time>2023-01-08T22:54:15Z</time>
      </trkpt>
      <trkpt lat="49.06747" lon="1.85546">
        <ele>165</ele>
        <time>2023-01-08T22:54:54Z</time>
      </trkpt>
      <trkpt lat="49.0672" lon="1.85542">
        <ele>164</ele>
        <time>2023-01-08T22:55:30Z</time>
      </trkpt>
      <trkpt lat="49.06706" lon="1.85531">
        <ele>164</ele>
        <time>2023-01-08T22:55:51Z</time>
      </trkpt>
      <trkpt lat="49.06697" lon="1.85531">
        <ele>164</ele>
        <time>2023-01-08T22:56:03Z</time>
      </trkpt>
      <trkpt lat="49.06685" lon="1.85524">
        <ele>164</ele>
        <time>2023-01-08T22:56:20Z</time>
      </trkpt>
      <trkpt lat="49.06641" lon="1.85486">
        <ele>163</ele>
        <time>2023-01-08T22:57:28Z</time>
      </trkpt>
      <trkpt lat="49.06631" lon="1.85442">
        <ele>164</ele>
        <time>2023-01-08T22:58:08Z</time>
      </trkpt>
      <trkpt lat="49.06595" lon="1.85365">
        <ele>162</ele>
        <time>2023-01-08T22:59:31Z</time>
      </trkpt>
      <trkpt lat="49.06592" lon="1.85351">
        <ele>162</ele>
        <time>2023-01-08T22:59:44Z</time>
      </trkpt>
      <trkpt lat="49.06588" lon="1.85296">
        <ele>163</ele>
        <time>2023-01-08T23:00:32Z</time>
      </trkpt>
      <trkpt lat="49.06595" lon="1.852">
        <ele>165</ele>
        <time>2023-01-08T23:01:57Z</time>
      </trkpt>
      <trkpt lat="49.06581" lon="1.85083">
        <ele>168</ele>
        <time>2023-01-08T23:03:41Z</time>
      </trkpt>
      <trkpt lat="49.06572" lon="1.85056">
        <ele>168</ele>
        <time>2023-01-08T23:04:07Z</time>
      </trkpt>
      <trkpt lat="49.06543" lon="1.85005">
        <ele>167</ele>
        <time>2023-01-08T23:05:06Z</time>
      </trkpt>
      <trkpt lat="49.06531" lon="1.84969">
        <ele>169</ele>
        <time>2023-01-08T23:05:42Z</time>
      </trkpt>
      <trkpt lat="49.06506" lon="1.84926">
        <ele>170</ele>
        <time>2023-01-08T23:06:32Z</time>
      </trkpt>
      <trkpt lat="49.065" lon="1.84904">
        <ele>171</ele>
        <time>2023-01-08T23:06:53Z</time>
      </trkpt>
      <trkpt lat="49.06495" lon="1.84896">
        <ele>171</ele>
        <time>2023-01-08T23:07:03Z</time>
      </trkpt>
      <trkpt lat="49.0646" lon="1.84868">
        <ele>169</ele>
        <time>2023-01-08T23:07:55Z</time>
      </trkpt>
      <trkpt lat="49.06405" lon="1.84804">
        <ele>170</ele>
        <time>2023-01-08T23:09:28Z</time>
      </trkpt>
      <trkpt lat="49.06385" lon="1.84797">
        <ele>169</ele>
        <time>2023-01-08T23:09:55Z</time>
      </trkpt>
      <trkpt lat="49.06363" lon="1.8478">
        <ele>169</ele>
        <time>2023-01-08T23:10:28Z</time>
      </trkpt>
      <trkpt lat="49.06343" lon="1.84778">
        <ele>167</ele>
        <time>2023-01-08T23:10:55Z</time>
      </trkpt>
      <trkpt lat="49.06312" lon="1.84746">
        <ele>168</ele>
        <time>2023-01-08T23:11:45Z</time>
      </trkpt>
      <trkpt lat="49.06293" lon="1.84738">
        <ele>166</ele>
        <time>2023-01-08T23:12:11Z</time>
      </trkpt>
      <trkpt lat="49.06257" lon="1.84705">
        <ele>164</ele>
        <time>2023-01-08T23:13:07Z</time>
      </trkpt>
      <trkpt lat="49.06198" lon="1.84594">
        <ele>164</ele>
        <time>2023-01-08T23:15:12Z</time>
      </trkpt>
      <trkpt lat="49.06192" lon="1.84575">
        <ele>164</ele>
        <time>2023-01-08T23:15:30Z</time>
      </trkpt>
      <trkpt lat="49.06192" lon="1.84538">
        <ele>165</ele>
        <time>2023-01-08T23:16:03Z</time>
      </trkpt>
      <trkpt lat="49.06188" lon="1.84534">
        <ele>165</ele>
        <time>2023-01-08T23:16:09Z</time>
      </trkpt>
      <trkpt lat="49.06192" lon="1.84528">
        <ele>165</ele>
        <time>2023-01-08T23:16:17Z</time>
      </trkpt>
      <trkpt lat="49.06187" lon="1.84535">
        <ele>165</ele>
        <time>2023-01-08T23:16:26Z</time>
      </trkpt>
      <trkpt lat="49.06185" lon="1.84555">
        <ele>165</ele>
        <time>2023-01-08T23:16:43Z</time>
      </trkpt>
      <trkpt lat="49.06171" lon="1.84575">
        <ele>164</ele>
        <time>2023-01-08T23:17:09Z</time>
      </trkpt>
      <trkpt lat="49.06156" lon="1.84587">
        <ele>165</ele>
        <time>2023-01-08T23:17:31Z</time>
      </trkpt>
      <trkpt lat="49.06136" lon="1.84628">
        <ele>166</ele>
        <time>2023-01-08T23:18:16Z</time>
      </trkpt>
      <trkpt lat="49.06098" lon="1.84664">
        <ele>166</ele>
        <time>2023-01-08T23:19:16Z</time>
      </trkpt>
      <trkpt lat="49.06105" lon="1.84679">
        <ele>165</ele>
        <time>2023-01-08T23:19:32Z</time>
      </trkpt>
      <trkpt lat="49.06132" lon="1.8471">
        <ele>161</ele>
        <time>2023-01-08T23:20:17Z</time>
      </trkpt>
      <trkpt lat="49.06155" lon="1.84721">
        <ele>159</ele>
        <time>2023-01-08T23:20:49Z</time>
      </trkpt>
      <trkpt lat="49.0618" lon="1.84721">
        <ele>159</ele>
        <time>2023-01-08T23:21:23Z</time>
      </trkpt>
      <trkpt lat="49.06205" lon="1.84749">
        <ele>159</ele>
        <time>2023-01-08T23:22:04Z</time>
      </trkpt>
      <trkpt lat="49.06229" lon="1.84767">
        <ele>159</ele>
        <time>2023-01-08T23:22:40Z</time>
      </trkpt>
      <trkpt lat="49.06282" lon="1.84782">
        <ele>162</ele>
        <time>2023-01-08T23:23:52Z</time>
      </trkpt>
      <trkpt lat="49.06295" lon="1.84762">
        <ele>165</ele>
        <time>2023-01-08T23:24:16Z</time>
      </trkpt>
      <trkpt lat="49.06333" lon="1.84663">
        <ele>178</ele>
        <time>2023-01-08T23:25:56Z</time>
      </trkpt>
      <trkpt lat="49.06344" lon="1.84617">
        <ele>179</ele>
        <time>2023-01-08T23:26:39Z</time>
      </trkpt>
      <trkpt lat="49.06341" lon="1.84609">
        <ele>179</ele>
        <time>2023-01-08T23:26:47Z</time>
      </trkpt>
      <trkpt lat="49.06329" lon="1.846">
        <ele>177</ele>
        <time>2023-01-08T23:27:05Z</time>
      </trkpt>
      <trkpt lat="49.06314" lon="1.846">
        <ele>175</ele>
        <time>2023-01-08T23:27:25Z</time>
      </trkpt>
      <trkpt lat="49.06298" lon="1.8463">
        <ele>172</ele>
        <time>2023-01-08T23:27:59Z</time>
      </trkpt>
      <trkpt lat="49.06288" lon="1.84662">
        <ele>171</ele>
        <time>2023-01-08T23:28:30Z</time>
      </trkpt>
      <trkpt lat="49.0628" lon="1.84665">
        <ele>170</ele>
        <time>2023-01-08T23:28:41Z</time>
      </trkpt>
      <trkpt lat="49.06272" lon="1.84649">
        <ele>168</ele>
        <time>2023-01-08T23:28:59Z</time>
      </trkpt>
      <trkpt lat="49.06266" lon="1.84645">
        <ele>167</ele>
        <time>2023-01-08T23:29:07Z</time>
      </trkpt>
      <trkpt lat="49.06222" lon="1.84653">
        <ele>164</ele>
        <time>2023-01-08T23:30:07Z</time>
      </trkpt>
      <trkpt lat="49.06189" lon="1.84593">
        <ele>164</ele>
        <time>2023-01-08T23:31:15Z</time>
      </trkpt>
      <trkpt lat="49.06186" lon="1.84541">
        <ele>165</ele>
        <time>2023-01-08T23:32:01Z</time>
      </trkpt>
      <trkpt lat="49.06183" lon="1.84556">
        <ele>165</ele>
        <time>2023-01-08T23:32:14Z</time>
      </trkpt>
      <trkpt lat="49.06169" lon="1.84572">
        <ele>165</ele>
        <time>2023-01-08T23:32:38Z</time>
      </trkpt>
      <trkpt lat="49.06146" lon="1.8462">
        <ele>165</ele>
        <time>2023-01-08T23:33:30Z</time>
      </trkpt>
      <trkpt lat="49.06132" lon="1.84639">
        <ele>165</ele>
        <time>2023-01-08T23:33:55Z</time>
      </trkpt>
      <trkpt lat="49.06088" lon="1.84671">
        <ele>166</ele>
        <time>2023-01-08T23:35:00Z</time>
      </trkpt>
      <trkpt lat="49.06018" lon="1.84681">
        <ele>170</ele>
        <time>2023-01-08T23:36:34Z</time>
      </trkpt>
      <trkpt lat="49.05984" lon="1.84667">
        <ele>171</ele>
        <time>2023-01-08T23:37:21Z</time>
      </trkpt>
      <trkpt lat="49.05964" lon="1.84664">
        <ele>171</ele>
        <time>2023-01-08T23:37:47Z</time>
      </trkpt>
      <trkpt lat="49.05927" lon="1.84621">
        <ele>179</ele>
        <time>2023-01-08T23:38:49Z</time>
      </trkpt>
      <trkpt lat="49.05869" lon="1.84578">
        <ele>184</ele>
        <time>2023-01-08T23:40:15Z</time>
      </trkpt>
      <trkpt lat="49.05842" lon="1.84516">
        <ele>190</ele>
        <time>2023-01-08T23:41:21Z</time>
      </trkpt>
      <trkpt lat="49.05818" lon="1.84485">
        <ele>191</ele>
        <time>2023-01-08T23:42:03Z</time>
      </trkpt>
      <trkpt lat="49.05799" lon="1.84474">
        <ele>191</ele>
        <time>2023-01-08T23:42:30Z</time>
      </trkpt>
      <trkpt lat="49.05773" lon="1.84446">
        <ele>192</ele>
        <time>2023-01-08T23:43:12Z</time>
      </trkpt>
      <trkpt lat="49.05764" lon="1.84445">
        <ele>192</ele>
        <time>2023-01-08T23:43:24Z</time>
      </trkpt>
      <trkpt lat="49.05753" lon="1.84435">
        <ele>192</ele>
        <time>2023-01-08T23:43:41Z</time>
      </trkpt>
      <trkpt lat="49.05733" lon="1.84428">
        <ele>191</ele>
        <time>2023-01-08T23:44:09Z</time>
      </trkpt>
      <trkpt lat="49.05722" lon="1.84414">
        <ele>192</ele>
        <time>2023-01-08T23:44:28Z</time>
      </trkpt>
      <trkpt lat="49.05691" lon="1.84392">
        <ele>191</ele>
        <time>2023-01-08T23:45:13Z</time>
      </trkpt>
      <trkpt lat="49.05647" lon="1.84369">
        <ele>190</ele>
        <time>2023-01-08T23:46:15Z</time>
      </trkpt>
      <trkpt lat="49.05639" lon="1.8436">
        <ele>190</ele>
        <time>2023-01-08T23:46:29Z</time>
      </trkpt>
      <trkpt lat="49.05608" lon="1.84355">
        <ele>188</ele>
        <time>2023-01-08T23:47:10Z</time>
      </trkpt>
      <trkpt lat="49.05585" lon="1.84322">
        <ele>188</ele>
        <time>2023-01-08T23:47:52Z</time>
      </trkpt>
      <trkpt lat="49.0553" lon="1.84268">
        <ele>187</ele>
        <time>2023-01-08T23:49:20Z</time>
      </trkpt>
      <trkpt lat="49.05516" lon="1.84264">
        <ele>186</ele>
        <time>2023-01-08T23:49:39Z</time>
      </trkpt>
      <trkpt lat="49.05497" lon="1.84267">
        <ele>185</ele>
        <time>2023-01-08T23:50:04Z</time>
      </trkpt>
      <trkpt lat="49.05438" lon="1.84251">
        <ele>184</ele>
        <time>2023-01-08T23:51:24Z</time>
      </trkpt>
      <trkpt lat="49.05402" lon="1.84252">
        <ele>185</ele>
        <time>2023-01-08T23:52:12Z</time>
      </trkpt>
      <trkpt lat="49.05387" lon="1.84245">
        <ele>185</ele>
        <time>2023-01-08T23:52:33Z</time>
      </trkpt>
      <trkpt lat="49.05361" lon="1.84243">
        <ele>186</ele>
        <time>2023-01-08T23:53:08Z</time>
      </trkpt>
      <trkpt lat="49.0535" lon="1.84248">
        <ele>187</ele>
        <time>2023-01-08T23:53:23Z</time>
      </trkpt>
      <trkpt lat="49.05329" lon="1.84247">
        <ele>188</ele>
        <time>2023-01-08T23:53:51Z</time>
      </trkpt>
      <trkpt lat="49.05297" lon="1.84255">
        <ele>186</ele>
        <time>2023-01-08T23:54:35Z</time>
      </trkpt>
      <trkpt lat="49.05275" lon="1.84253">
        <ele>186</ele>
        <time>2023-01-08T23:55:04Z</time>
      </trkpt>
      <trkpt lat="49.05247" lon="1.84279">
        <ele>185</ele>
        <time>2023-01-08T23:55:48Z</time>
      </trkpt>
      <trkpt lat="49.05221" lon="1.84287">
        <ele>185</ele>
        <time>2023-01-08T23:56:23Z</time>
      </trkpt>
      <trkpt lat="49.05171" lon="1.84339">
        <ele>185</ele>
        <time>2023-01-08T23:57:44Z</time>
      </trkpt>
      <trkpt lat="49.05116" lon="1.84363">
        <ele>184</ele>
        <time>2023-01-08T23:59:00Z</time>
      </trkpt>
      <trkpt lat="49.05095" lon="1.8438">
        <ele>183</ele>
        <time>2023-01-08T23:59:32Z</time>
      </trkpt>
      <trkpt lat="49.05052" lon="1.84382">
        <ele>182</ele>
        <time>2023-01-09T00:00:29Z</time>
      </trkpt>
      <trkpt lat="49.05015" lon="1.84391">
        <ele>180</ele>
        <time>2023-01-09T00:01:19Z</time>
      </trkpt>
      <trkpt lat="49.04952" lon="1.84383">
        <ele>176</ele>
        <time>2023-01-09T00:02:44Z</time>
      </trkpt>
      <trkpt lat="49.04941" lon="1.84374">
        <ele>176</ele>
        <time>2023-01-09T00:03:00Z</time>
      </trkpt>
      <trkpt lat="49.04929" lon="1.84372">
        <ele>175</ele>
        <time>2023-01-09T00:03:16Z</time>
      </trkpt>
      <trkpt lat="49.04919" lon="1.84398">
        <ele>172</ele>
        <time>2023-01-09T00:03:43Z</time>
      </trkpt>
      <trkpt lat="49.04919" lon="1.84465">
        <ele>168</ele>
        <time>2023-01-09T00:04:41Z</time>
      </trkpt>
      <trkpt lat="49.04914" lon="1.84512">
        <ele>164</ele>
        <time>2023-01-09T00:05:23Z</time>
      </trkpt>
      <trkpt lat="49.04927" lon="1.84624">
        <ele>158</ele>
        <time>2023-01-09T00:07:03Z</time>
      </trkpt>
      <trkpt lat="49.0491" lon="1.84663">
        <ele>158</ele>
        <time>2023-01-09T00:07:43Z</time>
      </trkpt>
      <trkpt lat="49.04911" lon="1.84687">
        <ele>156</ele>
        <time>2023-01-09T00:08:05Z</time>
      </trkpt>
      <trkpt lat="49.04906" lon="1.84712">
        <ele>154</ele>
        <time>2023-01-09T00:08:27Z</time>
      </trkpt>
      <trkpt lat="49.04895" lon="1.84725">
        <ele>153</ele>
        <time>2023-01-09T00:08:46Z</time>
      </trkpt>
      <trkpt lat="49.04868" lon="1.84735">
        <ele>151</ele>
        <time>2023-01-09T00:09:23Z</time>
      </trkpt>
      <trkpt lat="49.04809" lon="1.84739">
        <ele>148</ele>
        <time>2023-01-09T00:10:42Z</time>
      </trkpt>
      <trkpt lat="49.04783" lon="1.84737">
        <ele>146</ele>
        <time>2023-01-09T00:11:17Z</time>
      </trkpt>
      <trkpt lat="49.04774" lon="1.84739">
        <ele>146</ele>
        <time>2023-01-09T00:11:29Z</time>
      </trkpt>
      <trkpt lat="49.04763" lon="1.84749">
        <ele>145</ele>
        <time>2023-01-09T00:11:46Z</time>
      </trkpt>
      <trkpt lat="49.04755" lon="1.84764">
        <ele>144</ele>
        <time>2023-01-09T00:12:03Z</time>
      </trkpt>
      <trkpt lat="49.04749" lon="1.84804">
        <ele>142</ele>
        <time>2023-01-09T00:12:39Z</time>
      </trkpt>
      <trkpt lat="49.04714" lon="1.84854">
        <ele>136</ele>
        <time>2023-01-09T00:13:43Z</time>
      </trkpt>
      <trkpt lat="49.04707" lon="1.84877">
        <ele>134</ele>
        <time>2023-01-09T00:14:05Z</time>
      </trkpt>
      <trkpt lat="49.04709" lon="1.8491">
        <ele>133</ele>
        <time>2023-01-09T00:14:34Z</time>
      </trkpt>
      <trkpt lat="49.04729" lon="1.84994">
        <ele>132</ele>
        <time>2023-01-09T00:15:52Z</time>
      </trkpt>
      <trkpt lat="49.04718" lon="1.85047">
        <ele>129</ele>
        <time>2023-01-09T00:16:41Z</time>
      </trkpt>
      <trkpt lat="49.04698" lon="1.85098">
        <ele>127</ele>
        <time>2023-01-09T00:17:33Z</time>
      </trkpt>
      <trkpt lat="49.04648" lon="1.85151">
        <ele>126</ele>
        <time>2023-01-09T00:18:54Z</time>
      </trkpt>
      <trkpt lat="49.04648" lon="1.85205">
        <ele>125</ele>
        <time>2023-01-09T00:19:41Z</time>
      </trkpt>
      <trkpt lat="49.0466" lon="1.85234">
        <ele>125</ele>
        <time>2023-01-09T00:20:11Z</time>
      </trkpt>
      <trkpt lat="49.04661" lon="1.85267">
        <ele>124</ele>
        <time>2023-01-09T00:20:40Z</time>
      </trkpt>
      <trkpt lat="49.04652" lon="1.85281">
        <ele>124</ele>
        <time>2023-01-09T00:20:57Z</time>
      </trkpt>
      <trkpt lat="49.0463" lon="1.85268">
        <ele>124</ele>
        <time>2023-01-09T00:21:29Z</time>
      </trkpt>
      <trkpt lat="49.04616" lon="1.85266">
        <ele>123</ele>
        <time>2023-01-09T00:21:47Z</time>
      </trkpt>
      <trkpt lat="49.04585" lon="1.85279">
        <ele>122</ele>
        <time>2023-01-09T00:22:30Z</time>
      </trkpt>
      <trkpt lat="49.04562" lon="1.85279">
        <ele>122</ele>
        <time>2023-01-09T00:23:01Z</time>
      </trkpt>
      <trkpt lat="49.04551" lon="1.85292">
        <ele>121</ele>
        <time>2023-01-09T00:23:19Z</time>
      </trkpt>
      <trkpt lat="49.0455" lon="1.85303">
        <ele>121</ele>
        <time>2023-01-09T00:23:29Z</time>
      </trkpt>
      <trkpt lat="49.04556" lon="1.85315">
        <ele>121</ele>
        <time>2023-01-09T00:23:42Z</time>
      </trkpt>
      <trkpt lat="49.04578" lon="1.85335">
        <ele>121</ele>
        <time>2023-01-09T00:24:17Z</time>
      </trkpt>
      <trkpt lat="49.04601" lon="1.85366">
        <ele>121</ele>
        <time>2023-01-09T00:24:57Z</time>
      </trkpt>
      <trkpt lat="49.04611" lon="1.85436">
        <ele>121</ele>
        <time>2023-01-09T00:26:00Z</time>
      </trkpt>
      <trkpt lat="49.04609" lon="1.85469">
        <ele>121</ele>
        <time>2023-01-09T00:26:29Z</time>
      </trkpt>
      <trkpt lat="49.04603" lon="1.85485">
        <ele>121</ele>
        <time>2023-01-09T00:26:45Z</time>
      </trkpt>
      <trkpt lat="49.04589" lon="1.85501">
        <ele>120</ele>
        <time>2023-01-09T00:27:09Z</time>
      </trkpt>
      <trkpt lat="49.04555" lon="1.85511">
        <ele>119</ele>
        <time>2023-01-09T00:27:55Z</time>
      </trkpt>
      <trkpt lat="49.04522" lon="1.85514">
        <ele>118</ele>
        <time>2023-01-09T00:28:39Z</time>
      </trkpt>
      <trkpt lat="49.04494" lon="1.85522">
        <ele>117</ele>
        <time>2023-01-09T00:29:17Z</time>
      </trkpt>
      <trkpt lat="49.04448" lon="1.85516">
        <ele>116</ele>
        <time>2023-01-09T00:30:19Z</time>
      </trkpt>
      <trkpt lat="49.04382" lon="1.85608">
        <ele>111</ele>
        <time>2023-01-09T00:32:18Z</time>
      </trkpt>
      <trkpt lat="49.04342" lon="1.85651">
        <ele>108</ele>
        <time>2023-01-09T00:33:23Z</time>
      </trkpt>
      <trkpt lat="49.04327" lon="1.8566">
        <ele>107</ele>
        <time>2023-01-09T00:33:45Z</time>
      </trkpt>
      <trkpt lat="49.04314" lon="1.85674">
        <ele>107</ele>
        <time>2023-01-09T00:34:06Z</time>
      </trkpt>
      <trkpt lat="49.04281" lon="1.85718">
        <ele>105</ele>
        <time>2023-01-09T00:35:04Z</time>
      </trkpt>
      <trkpt lat="49.0426" lon="1.85713">
        <ele>106</ele>
        <time>2023-01-09T00:35:33Z</time>
      </trkpt>
      <trkpt lat="49.04241" lon="1.85721">
        <ele>105</ele>
        <time>2023-01-09T00:35:59Z</time>
      </trkpt>
      <trkpt lat="49.04183" lon="1.85776">
        <ele>100</ele>
        <time>2023-01-09T00:37:30Z</time>
      </trkpt>
      <trkpt lat="49.04169" lon="1.85815">
        <ele>97</ele>
        <time>2023-01-09T00:38:09Z</time>
      </trkpt>
      <trkpt lat="49.04161" lon="1.85854">
        <ele>94</ele>
        <time>2023-01-09T00:38:45Z</time>
      </trkpt>
      <trkpt lat="49.04145" lon="1.86024">
        <ele>93</ele>
        <time>2023-01-09T00:41:15Z</time>
      </trkpt>
      <trkpt lat="49.04131" lon="1.86075">
        <ele>94</ele>
        <time>2023-01-09T00:42:03Z</time>
      </trkpt>
      <trkpt lat="49.0407" lon="1.86167">
        <ele>95</ele>
        <time>2023-01-09T00:43:58Z</time>
      </trkpt>
      <trkpt lat="49.04055" lon="1.86181">
        <ele>94</ele>
        <time>2023-01-09T00:44:21Z</time>
      </trkpt>
      <trkpt lat="49.04028" lon="1.86222">
        <ele>92</ele>
        <time>2023-01-09T00:45:12Z</time>
      </trkpt>
      <trkpt lat="49.03993" lon="1.86264">
        <ele>92</ele>
        <time>2023-01-09T00:46:12Z</time>
      </trkpt>
      <trkpt lat="49.03956" lon="1.86292">
        <ele>90</ele>
        <time>2023-01-09T00:47:07Z</time>
      </trkpt>
      <trkpt lat="49.03904" lon="1.86321">
        <ele>88</ele>
        <time>2023-01-09T00:48:21Z</time>
      </trkpt>
      <trkpt lat="49.03874" lon="1.86333">
        <ele>87</ele>
        <time>2023-01-09T00:49:02Z</time>
      </trkpt>
      <trkpt lat="49.03852" lon="1.86333">
        <ele>86</ele>
        <time>2023-01-09T00:49:31Z</time>
      </trkpt>
      <trkpt lat="49.03839" lon="1.86339">
        <ele>85</ele>
        <time>2023-01-09T00:49:50Z</time>
      </trkpt>
      <trkpt lat="49.038" lon="1.864">
        <ele>78</ele>
        <time>2023-01-09T00:51:04Z</time>
      </trkpt>
      <trkpt lat="49.03773" lon="1.86434">
        <ele>73</ele>
        <time>2023-01-09T00:51:51Z</time>
      </trkpt>
      <trkpt lat="49.03754" lon="1.86469">
        <ele>69</ele>
        <time>2023-01-09T00:52:31Z</time>
      </trkpt>
      <trkpt lat="49.03748" lon="1.86473">
        <ele>68</ele>
        <time>2023-01-09T00:52:39Z</time>
      </trkpt>
      <trkpt lat="49.03676" lon="1.8647">
        <ele>57</ele>
        <time>2023-01-09T00:54:15Z</time>
      </trkpt>
      <trkpt lat="49.0362" lon="1.86479">
        <ele>50</ele>
        <time>2023-01-09T00:55:31Z</time>
      </trkpt>
      <trkpt lat="49.03569" lon="1.86466">
        <ele>45</ele>
        <time>2023-01-09T00:56:40Z</time>
      </trkpt>
      <trkpt lat="49.03538" lon="1.86492">
        <ele>41</ele>
        <time>2023-01-09T00:57:27Z</time>
      </trkpt>
      <trkpt lat="49.03516" lon="1.86493">
        <ele>39</ele>
        <time>2023-01-09T00:57:56Z</time>
      </trkpt>
      <trkpt lat="49.03507" lon="1.86499">
        <ele>39</ele>
        <time>2023-01-09T00:58:09Z</time>
      </trkpt>
      <trkpt lat="49.035" lon="1.86511">
        <ele>38</ele>
        <time>2023-01-09T00:58:23Z</time>
      </trkpt>
      <trkpt lat="49.03497" lon="1.86527">
        <ele>39</ele>
        <time>2023-01-09T00:58:38Z</time>
      </trkpt>
      <trkpt lat="49.03503" lon="1.86549">
        <ele>39</ele>
        <time>2023-01-09T00:58:59Z</time>
      </trkpt>
    </trkseg>
  </trk>
</gpx>